Time;durP1;ratioP1;P1;durP2;ratioP2;P2;SDS_P1;SDS_P2;PMS_P1;PMS_P2;Temp;Humidity;BMP_temperature;BMP_pressure;BME280_temperature;BME280_humidity;BME280_pressure;Samples;Min_cycle;Max_cycle;Signal;HPM_P1;HPM_P2
2021/04/11 00:02:38;;;;;;;93.70;46.40;;;;;;;9.71;47.80;99137.81;258340;1118;114948;-75
2021/04/11 00:07:46;;;;;;;88.23;45.63;;;;;;;9.66;47.92;99133.69;257553;1119;115332;-76
2021/04/11 00:12:48;;;;;;;77.87;41.27;;;;;;;9.62;47.82;99132.16;254327;1120;114894;-76
2021/04/11 00:17:51;;;;;;;75.58;41.90;;;;;;;9.53;48.06;99130.87;256989;1120;116226;-73
2021/04/11 00:22:54;;;;;;;73.53;39.70;;;;;;;9.48;48.61;99130.28;258387;1119;115003;-72
2021/04/11 00:27:58;;;;;;;72.15;38.45;;;;;;;9.44;48.66;99126.06;258088;1118;116770;-75
2021/04/11 00:33:02;;;;;;;80.68;39.73;;;;;;;9.41;48.49;99128.91;255913;1119;115241;-72
2021/04/11 00:38:05;;;;;;;75.60;38.40;;;;;;;9.40;48.76;99122.72;258419;1119;114964;-75
2021/04/11 00:43:11;;;;;;;64.60;35.85;;;;;;;9.39;49.11;99106.88;258216;1119;115187;-74
2021/04/11 00:48:17;;;;;;;68.60;35.98;;;;;;;9.33;49.08;99110.73;258094;1119;115131;-74
2021/04/11 00:53:20;;;;;;;58.48;32.25;;;;;;;9.28;49.20;99117.26;258177;1119;115019;-72
2021/04/11 00:58:25;;;;;;;67.73;32.60;;;;;;;9.26;49.07;99121.78;257448;1119;115123;-71
2021/04/11 01:03:32;;;;;;;57.10;31.38;;;;;;;9.23;49.17;99121.00;257914;1119;114772;-71
2021/04/11 01:08:36;;;;;;;49.80;27.48;;;;;;;9.21;49.54;99111.43;258281;1118;114791;-74
2021/04/11 01:13:44;;;;;;;47.30;25.00;;;;;;;9.19;48.92;99119.46;255057;1119;114837;-71
2021/04/11 01:18:49;;;;;;;41.67;22.43;;;;;;;9.20;49.02;99118.55;255365;1118;115294;-71
2021/04/11 01:24:21;;;;;;;42.08;21.65;;;;;;;9.20;49.20;99110.58;257599;1118;114978;-71
2021/04/11 01:29:31;;;;;;;42.13;20.95;;;;;;;9.19;49.71;99119.46;257993;1120;114792;-74
2021/04/11 01:34:35;;;;;;;43.73;20.70;;;;;;;9.16;49.22;99116.12;257974;1119;114698;-75
2021/04/11 01:39:42;;;;;;;37.53;20.35;;;;;;;9.11;49.29;99116.38;256946;1119;114704;-70
2021/04/11 01:44:49;;;;;;;42.00;19.28;;;;;;;9.10;49.45;99111.14;255620;1119;114941;-71
2021/04/11 01:49:53;;;;;;;41.78;21.33;;;;;;;9.06;49.42;99118.42;258054;1118;114145;-70
2021/04/11 01:54:57;;;;;;;36.30;18.55;;;;;;;9.01;49.18;99123.13;258309;1119;114876;-70
2021/04/11 02:00:11;;;;;;;34.75;18.15;;;;;;;8.98;49.55;99129.45;257418;1119;114936;-70
2021/04/11 02:05:18;;;;;;;35.58;18.33;;;;;;;8.97;49.38;99130.41;257818;1118;114180;-78
2021/04/11 02:10:31;;;;;;;40.10;18.50;;;;;;;8.94;49.74;99125.27;257627;1119;114947;-70
2021/04/11 02:15:58;;;;;;;36.33;18.50;;;;;;;8.88;50.40;99120.28;258388;1119;114524;-70
2021/04/11 02:21:15;;;;;;;37.38;20.40;;;;;;;8.82;49.93;99115.30;257414;1119;114844;-73
2021/04/11 02:26:17;;;;;;;;;;;;;;;8.72;50.43;99108.77;258257;1119;114547;-74
2021/04/11 02:31:30;;;;;;;42.80;22.80;;;;;;;8.57;50.23;99107.80;257503;1119;103070;-73
2021/04/11 02:36:41;;;;;;;45.28;22.85;;;;;;;8.47;50.45;99110.06;257999;1118;114611;-74
2021/04/11 02:41:45;;;;;;;46.55;23.25;;;;;;;8.41;50.08;99102.42;258377;1119;114959;-74
2021/04/11 02:46:49;;;;;;;41.73;22.88;;;;;;;8.32;49.96;99115.27;257501;1119;115299;-71
2021/04/11 02:51:54;;;;;;;43.05;22.70;;;;;;;8.16;50.30;99118.72;258268;1119;114597;-72
2021/04/11 02:56:59;;;;;;;43.75;22.30;;;;;;;8.09;51.09;99112.02;257808;1119;114753;-70
2021/04/11 03:02:07;;;;;;;43.18;21.65;;;;;;;8.04;50.38;99112.23;257750;1118;114912;-72
2021/04/11 03:07:28;;;;;;;43.63;21.75;;;;;;;8.01;50.93;99117.68;256208;1119;114480;-72
2021/04/11 03:12:32;;;;;;;37.18;19.90;;;;;;;7.96;50.78;99121.52;257001;1120;114797;-72
2021/04/11 03:17:36;;;;;;;37.98;20.13;;;;;;;7.92;51.19;99106.71;258128;1119;114876;-72
2021/04/11 03:22:41;;;;;;;38.53;18.77;;;;;;;7.86;50.93;99113.16;258332;1118;114741;-71
2021/04/11 03:28:04;;;;;;;38.85;19.93;;;;;;;7.87;51.03;99111.37;258385;1118;114918;-71
2021/04/11 03:33:13;;;;;;;36.93;18.03;;;;;;;7.85;50.76;99108.81;256882;1118;114561;-76
2021/04/11 03:38:23;;;;;;;37.20;19.55;;;;;;;7.80;51.53;99103.72;256432;1120;114951;-76
2021/04/11 03:43:42;;;;;;;36.53;18.95;;;;;;;7.75;51.60;99104.91;256822;1119;114490;-74
2021/04/11 03:49:15;;;;;;;33.83;18.50;;;;;;;7.68;51.27;99101.70;255467;1119;114933;-74
2021/04/11 03:54:21;;;;;;;38.93;18.23;;;;;;;7.61;51.25;99099.40;255007;1120;114963;-74
2021/04/11 03:59:28;;;;;;;36.00;17.68;;;;;;;7.53;51.77;99099.78;257354;1119;114822;-75
2021/04/11 04:04:33;;;;;;;34.70;17.73;;;;;;;7.49;51.72;99088.48;257972;1119;117127;-77
2021/04/11 04:09:48;;;;;;;32.55;16.98;;;;;;;7.48;52.07;99088.57;255540;1119;114916;-72
2021/04/11 04:15:00;;;;;;;31.08;16.13;;;;;;;7.46;52.52;99093.92;258160;1119;114705;-72
2021/04/11 04:20:15;;;;;;;37.23;17.87;;;;;;;7.44;52.42;99079.92;252876;1119;115019;-75
2021/04/11 04:25:53;;;;;;;34.15;15.55;;;;;;;7.43;52.74;99085.27;256887;1119;115822;-71
2021/04/11 04:31:04;;;;;;;28.75;14.98;;;;;;;7.45;52.55;99097.52;258365;1119;114724;-76
2021/04/11 04:36:20;;;;;;;32.23;16.00;;;;;;;7.46;52.78;99099.22;253596;1120;114623;-73
2021/04/11 04:41:38;;;;;;;26.00;14.00;;;;;;;7.48;52.88;99094.72;258383;1119;114280;-75
2021/04/11 04:46:50;;;;;;;27.60;13.98;;;;;;;7.53;52.34;99108.58;257518;1119;114884;-76
2021/04/11 04:52:00;;;;;;;27.53;13.98;;;;;;;7.60;53.27;99109.14;258145;1120;114902;-73
2021/04/11 04:57:13;;;;;;;24.47;12.40;;;;;;;7.70;53.48;99102.46;256818;1118;114796;-71
2021/04/11 05:02:17;;;;;;;20.85;11.60;;;;;;;7.86;53.22;99104.36;255551;1120;114958;-72
2021/04/11 05:07:33;;;;;;;17.68;10.88;;;;;;;8.05;53.00;99097.21;257219;1119;114425;-71
2021/04/11 05:12:49;;;;;;;21.93;10.30;;;;;;;8.24;53.30;99089.16;257508;1118;114890;-70
2021/04/11 05:18:05;;;;;;;20.70;10.78;;;;;;;8.40;53.11;99089.27;256759;1119;114825;-71
2021/04/11 05:23:17;;;;;;;25.78;10.48;;;;;;;8.53;52.74;99095.64;256932;1119;114816;-71
2021/04/11 05:28:32;;;;;;;16.65;9.58;;;;;;;8.66;52.97;99109.97;258262;1118;114753;-71
2021/04/11 05:33:37;;;;;;;21.08;9.65;;;;;;;8.80;52.36;99103.92;255073;1118;114815;-70
2021/04/11 05:38:55;;;;;;;16.48;9.10;;;;;;;8.95;52.18;99102.23;256074;1118;114468;-71
2021/04/11 05:44:04;;;;;;;16.60;9.35;;;;;;;9.08;52.58;99092.66;258081;1118;114459;-76
2021/04/11 05:49:14;;;;;;;21.05;9.98;;;;;;;9.21;52.59;99090.19;255726;1119;114338;-74
2021/04/11 05:54:37;;;;;;;19.30;10.00;;;;;;;9.34;52.35;99085.02;253886;1120;114711;-77
2021/04/11 05:59:45;;;;;;;20.55;10.68;;;;;;;9.45;52.55;99079.98;257440;1118;114555;-70
2021/04/11 06:05:02;;;;;;;20.30;10.90;;;;;;;9.60;52.14;99076.44;257276;1118;114553;-73
2021/04/11 06:10:10;;;;;;;23.55;11.73;;;;;;;9.79;52.49;99073.58;256344;1119;115172;-72
2021/04/11 06:15:34;;;;;;;24.63;10.95;;;;;;;9.99;52.19;99072.42;256862;1118;115176;-72
2021/04/11 06:20:37;;;;;;;23.98;11.50;;;;;;;10.19;52.03;99063.26;258009;1119;114902;-75
2021/04/11 06:25:55;;;;;;;24.68;11.73;;;;;;;10.40;51.87;99069.11;258312;1118;115216;-77
2021/04/11 06:31:04;;;;;;;21.60;10.40;;;;;;;10.60;52.13;99058.10;257589;1120;115534;-75
2021/04/11 06:36:16;;;;;;;22.90;10.50;;;;;;;10.82;51.98;99062.08;258352;1118;115497;-72
2021/04/11 06:41:29;;;;;;;23.18;10.63;;;;;;;11.04;51.73;99066.89;258319;1118;115000;-76
2021/04/11 06:46:49;;;;;;;21.50;10.28;;;;;;;11.27;51.52;99060.09;257924;1118;114820;-77
2021/04/11 06:52:11;;;;;;;28.00;10.00;;;;;;;11.49;50.99;99057.77;257882;1119;115250;-72
2021/04/11 06:57:30;;;;;;;26.33;10.07;;;;;;;11.74;51.22;99061.47;256185;1119;115275;-74
2021/04/11 07:02:51;;;;;;;27.70;10.78;;;;;;;11.96;51.05;99066.27;256295;1119;115309;-74
2021/04/11 07:08:12;;;;;;;27.73;9.33;;;;;;;12.17;50.27;99055.95;258375;1119;114929;-76
2021/04/11 07:13:59;;;;;;;18.83;5.63;;;;;;;12.37;49.86;99044.77;256238;1119;115719;-71
2021/04/11 07:19:28;;;;;;;11.65;4.68;;;;;;;12.62;49.58;99038.55;255553;1119;114874;-72
2021/04/11 07:24:42;;;;;;;7.43;3.83;;;;;;;12.87;49.04;99039.48;257842;1119;114780;-73
2021/04/11 07:30:13;;;;;;;7.43;3.05;;;;;;;13.09;48.30;99033.46;258425;1120;115040;-77
2021/04/11 07:35:34;;;;;;;12.68;3.38;;;;;;;13.32;48.35;99038.02;257697;1119;117890;-73
2021/04/11 07:40:37;;;;;;;6.20;3.28;;;;;;;13.55;47.21;99035.45;258282;1119;114700;-77
2021/04/11 07:45:55;;;;;;;9.63;2.83;;;;;;;13.73;46.86;99037.62;256966;1119;114746;-80
2021/04/11 07:51:25;;;;;;;9.25;3.63;;;;;;;13.92;46.58;99041.56;257422;1118;114973;-73
2021/04/11 07:56:48;;;;;;;9.83;4.78;;;;;;;14.10;45.80;99029.48;257091;1118;114766;-74
2021/04/11 08:01:55;;;;;;;5.65;2.53;;;;;;;14.30;45.85;99024.39;258039;1120;114929;-78
2021/04/11 08:07:17;;;;;;;7.88;2.90;;;;;;;14.48;45.28;99016.77;258357;1119;114291;-77
2021/04/11 08:12:52;;;;;;;6.23;3.13;;;;;;;14.65;45.09;99011.81;257781;1118;114554;-77
2021/04/11 08:18:16;;;;;;;6.35;2.48;;;;;;;14.84;44.55;99013.89;257996;1118;115313;-79
2021/04/11 08:23:37;;;;;;;7.93;2.43;;;;;;;15.03;44.45;99023.12;258293;1119;114593;-74
2021/04/11 08:28:57;;;;;;;5.93;2.30;;;;;;;15.20;43.80;99022.60;258383;1118;114715;-75
2021/04/11 08:34:39;;;;;;;5.28;2.35;;;;;;;15.39;43.55;99030.01;258259;1118;115039;-74
2021/04/11 08:39:45;;;;;;;5.43;2.23;;;;;;;15.54;42.57;99031.41;257108;1119;114814;-73
2021/04/11 08:44:51;;;;;;;6.23;2.33;;;;;;;15.66;42.40;99032.27;258277;1118;114714;-78
2021/04/11 08:49:58;;;;;;;7.73;3.30;;;;;;;15.83;42.29;99037.08;255152;1118;114821;-73
2021/04/11 08:55:32;;;;;;;11.00;6.80;;;;;;;16.42;43.11;99026.75;258369;1118;114889;-70
2021/04/11 09:00:48;;;;;;;11.93;5.27;;;;;;;16.96;43.28;99020.25;258023;1119;114798;-73
2021/04/11 09:05:50;;;;;;;;;;;;;;;17.41;43.29;99007.19;257808;1119;114849;-75
2021/04/11 09:11:04;;;;;;;19.90;6.23;;;;;;;17.69;43.85;99002.81;257504;1119;101084;-77
2021/04/11 09:16:22;;;;;;;12.50;3.63;;;;;;;17.99;43.31;98984.00;257533;1119;115044;-79
2021/04/11 09:21:42;;;;;;;5.17;2.83;;;;;;;18.07;41.66;98986.81;256121;1119;114765;-79
2021/04/11 09:27:09;;;;;;;7.90;2.95;;;;;;;18.22;41.54;98988.08;256975;1118;114748;-73
2021/04/11 09:32:24;;;;;;;6.43;3.23;;;;;;;18.33;40.85;98981.67;258155;1119;114820;-74
2021/04/11 09:37:33;;;;;;;8.93;3.90;;;;;;;18.44;40.37;98976.97;256867;1119;114818;-74
2021/04/11 09:43:14;;;;;;;25.70;15.95;;;;;;;18.58;40.77;98974.77;257087;1119;115959;-77
2021/04/11 09:48:16;;;;;;;16.78;11.45;;;;;;;18.62;39.54;98976.20;257607;1120;115984;-79
2021/04/11 09:53:53;;;;;;;13.10;7.47;;;;;;;18.58;39.12;98969.38;257284;1119;115978;-76
2021/04/11 09:59:40;;;;;;;39.93;24.73;;;;;;;18.59;38.84;98966.55;257778;1118;115292;-76
2021/04/11 10:05:11;;;;;;;39.10;23.83;;;;;;;18.66;39.24;98945.24;257092;1118;115325;-78
2021/04/11 10:10:31;;;;;;;7.87;3.93;;;;;;;18.70;38.59;98948.48;256745;1119;114898;-76
2021/04/11 10:15:43;;;;;;;28.73;15.20;;;;;;;18.80;39.74;98942.08;257330;1119;114701;-78
2021/04/11 10:21:01;;;;;;;12.37;7.20;;;;;;;18.90;38.61;98942.03;255873;1118;115720;-76
2021/04/11 10:26:18;;;;;;;18.48;8.30;;;;;;;18.94;38.17;98945.28;255678;1119;114562;-78
2021/04/11 10:31:51;;;;;;;25.73;16.28;;;;;;;19.07;38.90;98943.91;257339;1119;114565;-79
2021/04/11 10:37:11;;;;;;;12.98;7.30;;;;;;;19.35;38.89;98935.77;256917;1119;115140;-78
2021/04/11 10:42:43;;;;;;;138.93;95.50;;;;;;;19.45;37.90;98941.09;256978;1118;114739;-76
2021/04/11 10:48:11;;;;;;;53.70;35.97;;;;;;;19.50;37.52;98934.25;257173;1118;115154;-73
2021/04/11 10:53:25;;;;;;;24.37;14.33;;;;;;;19.59;37.61;98929.75;255230;1119;114861;-82
2021/04/11 10:58:46;;;;;;;16.95;10.90;;;;;;;19.69;37.57;98924.30;254265;1119;115304;-73
2021/04/11 11:04:21;;;;;;;46.88;32.55;;;;;;;19.87;36.70;98917.04;257473;1118;115187;-73
2021/04/11 11:09:36;;;;;;;5.40;2.03;;;;;;;20.03;35.63;98917.13;257239;1119;115191;-77
2021/04/11 11:15:19;;;;;;;5.50;1.87;;;;;;;20.00;35.52;98920.14;257629;1118;114784;-72
2021/04/11 11:20:27;;;;;;;6.73;1.87;;;;;;;19.99;34.90;98923.86;258199;1118;114387;-72
2021/04/11 11:25:52;;;;;;;4.95;1.80;;;;;;;20.16;34.40;98911.31;258086;1118;115169;-72
2021/04/11 11:31:26;;;;;;;6.05;1.48;;;;;;;20.35;34.21;98920.22;257981;1119;114525;-72
2021/04/11 11:37:06;;;;;;;7.33;1.83;;;;;;;20.32;33.85;98924.09;258166;1118;114841;-74
2021/04/11 11:42:30;;;;;;;3.08;1.20;;;;;;;20.25;33.48;98933.84;258077;1119;114700;-74
2021/04/11 11:48:00;;;;;;;16.73;2.60;;;;;;;20.35;33.47;98944.55;258085;1118;114328;-75
2021/04/11 11:53:25;;;;;;;3.68;1.15;;;;;;;20.32;33.19;98924.93;258020;1120;114881;-73
2021/04/11 11:59:01;;;;;;;7.15;1.20;;;;;;;20.18;33.18;98924.68;258271;1119;114711;-74
2021/04/11 12:04:26;;;;;;;3.43;1.13;;;;;;;19.96;33.40;98928.73;258070;1118;114699;-75
2021/04/11 12:09:31;;;;;;;;;;;;;;;19.68;33.28;98925.31;258424;1119;114689;-77
2021/04/11 12:15:05;;;;;;;3.10;1.20;;;;;;;19.52;33.65;98952.97;258355;1118;100829;-77
2021/04/11 12:20:33;;;;;;;3.80;1.55;;;;;;;19.32;33.31;98930.67;258057;1120;114591;-76
2021/04/11 12:25:37;;;;;;;4.83;1.10;;;;;;;19.19;33.86;98946.39;257363;1119;114544;-76
2021/04/11 12:30:42;;;;;;;4.48;1.30;;;;;;;19.22;33.76;98913.70;256225;1120;115046;-79
2021/04/11 12:36:34;;;;;;;3.93;1.30;;;;;;;19.64;34.33;98918.54;256672;1119;114670;-76
2021/04/11 12:41:40;;;;;;;5.98;1.28;;;;;;;19.66;33.64;98917.35;257469;1121;114529;-77
2021/04/11 12:47:14;;;;;;;1.87;1.00;;;;;;;19.54;33.76;98919.42;257851;1118;114670;-76
2021/04/11 12:52:44;;;;;;;2.78;1.03;;;;;;;19.38;33.86;98917.42;257853;1119;114649;-77
2021/04/11 12:58:18;;;;;;;3.03;1.08;;;;;;;19.25;33.58;98926.89;258332;1118;115176;-77
2021/04/11 13:03:27;;;;;;;3.95;1.20;;;;;;;19.06;34.05;98919.80;258187;1118;114827;-76
2021/04/11 13:08:44;;;;;;;3.18;1.18;;;;;;;18.89;34.43;98948.44;258216;1118;114594;-76
2021/04/11 13:14:26;;;;;;;3.20;1.18;;;;;;;18.72;34.46;98935.75;258361;1118;114880;-73
2021/04/11 13:19:42;;;;;;;2.35;1.30;;;;;;;18.56;34.99;98939.89;258284;1119;114651;-73
2021/04/11 13:24:56;;;;;;;3.00;1.10;;;;;;;18.47;34.84;98946.16;257930;1118;114862;-75
2021/04/11 13:30:10;;;;;;;2.50;1.20;;;;;;;18.43;35.21;98956.39;258400;1120;114939;-74
2021/04/11 13:35:36;;;;;;;3.43;1.08;;;;;;;18.41;35.29;98946.78;258119;1120;114333;-72
2021/04/11 13:40:39;;;;;;;3.75;1.15;;;;;;;18.31;35.36;98956.73;258271;1118;116315;-77
2021/04/11 13:45:51;;;;;;;6.78;1.55;;;;;;;18.16;35.57;98964.41;257005;1119;114459;-80
2021/04/11 13:51:05;;;;;;;4.33;1.40;;;;;;;18.02;35.51;98967.56;257835;1118;114719;-83
2021/04/11 13:56:13;;;;;;;4.05;1.38;;;;;;;17.82;36.29;98972.95;257120;1120;114838;-78
2021/04/11 14:01:40;;;;;;;5.23;1.40;;;;;;;17.62;36.25;98966.70;255764;1119;114508;-80
2021/04/11 14:07:00;;;;;;;2.48;1.20;;;;;;;17.42;36.36;98978.44;256437;1119;114464;-73
2021/04/11 14:12:07;;;;;;;4.30;1.47;;;;;;;17.26;36.38;98971.78;254846;1118;115666;-76
2021/04/11 14:17:09;;;;;;;5.07;1.53;;;;;;;17.13;36.74;98984.64;253564;1119;114503;-78
2021/04/11 14:22:30;;;;;;;4.88;1.38;;;;;;;17.05;36.74;98980.92;256862;1118;114689;-76
2021/04/11 14:28:01;;;;;;;5.73;1.45;;;;;;;16.94;36.84;98976.51;258224;1119;114661;-77
2021/04/11 14:33:19;;;;;;;5.03;1.47;;;;;;;16.81;36.90;98982.12;253978;1119;114980;-76
2021/04/11 14:38:41;;;;;;;3.87;1.50;;;;;;;16.72;37.29;99001.73;256617;1118;114929;-76
2021/04/11 14:43:45;;;;;;;3.73;1.40;;;;;;;16.64;37.61;99009.60;256427;1118;115099;-77
2021/04/11 14:48:48;;;;;;;4.40;1.60;;;;;;;16.49;38.32;99025.23;258062;1119;114936;-77
2021/04/11 14:54:24;;;;;;;3.38;1.18;;;;;;;16.29;39.27;99025.11;256526;1118;114894;-76
2021/04/11 14:59:35;;;;;;;3.43;1.17;;;;;;;16.05;39.55;99030.74;255868;1119;114364;-77
2021/04/11 15:04:55;;;;;;;2.65;1.30;;;;;;;15.88;40.38;99035.84;258106;1118;114792;-77
2021/04/11 15:10:20;;;;;;;3.55;1.50;;;;;;;15.76;40.70;99035.02;255380;1119;116572;-78
2021/04/11 15:15:35;;;;;;;2.60;1.50;;;;;;;15.64;41.42;99030.66;256273;1119;115023;-78
2021/04/11 15:20:43;;;;;;;4.20;1.60;;;;;;;15.54;41.44;99028.73;254541;1118;115152;-79
2021/04/11 15:26:10;;;;;;;4.97;2.03;;;;;;;15.43;41.93;99036.81;256576;1119;114759;-74
2021/04/11 15:31:27;;;;;;;5.13;1.80;;;;;;;15.33;42.45;99038.55;258025;1119;114851;-74
2021/04/11 15:36:37;;;;;;;3.30;1.70;;;;;;;15.22;42.52;99036.75;258287;1119;114795;-73
2021/04/11 15:42:27;;;;;;;5.13;2.10;;;;;;;15.08;43.17;99047.70;258323;1118;114586;-74
2021/04/11 15:47:57;;;;;;;4.13;1.90;;;;;;;14.96;43.80;99044.20;256655;1118;114775;-74
2021/04/11 15:53:43;;;;;;;7.40;2.20;;;;;;;14.85;44.06;99053.09;257377;1119;114541;-73
2021/04/11 15:58:53;;;;;;;5.83;2.45;;;;;;;14.75;45.17;99049.44;258297;1119;114631;-75
2021/04/11 16:04:10;;;;;;;5.53;2.53;;;;;;;14.64;45.09;99044.94;258221;1120;114767;-72
2021/04/11 16:09:12;;;;;;;10.50;2.65;;;;;;;14.56;45.43;99050.02;258003;1120;114653;-73
2021/04/11 16:14:59;;;;;;;8.78;2.55;;;;;;;14.48;46.22;99057.78;258346;1117;114811;-73
2021/04/11 16:20:14;;;;;;;6.20;2.58;;;;;;;14.40;46.22;99057.51;257169;1119;114885;-76
2021/04/11 16:25:22;;;;;;;;;;;;;;;14.33;47.16;99062.48;258212;1120;114312;-74
2021/04/11 16:30:34;;;;;;;9.73;2.85;;;;;;;14.27;47.17;99059.45;258260;1118;101294;-73
2021/04/11 16:35:42;;;;;;;7.68;3.08;;;;;;;14.23;47.98;99049.93;258123;1118;114541;-75
2021/04/11 16:40:57;;;;;;;8.95;2.55;;;;;;;14.17;47.82;99067.33;254877;1118;114579;-75
2021/04/11 16:46:10;;;;;;;;;;;;;;;14.16;48.80;99068.28;256575;1120;114666;-75
2021/04/11 16:51:28;;;;;;;8.08;3.03;;;;;;;14.11;48.46;99062.44;258150;1119;100898;-74
2021/04/11 16:56:41;;;;;;;6.65;3.20;;;;;;;14.11;48.76;99070.47;258070;1118;114601;-74
2021/04/11 17:01:54;;;;;;;6.25;2.93;;;;;;;14.07;48.65;99069.00;257956;1118;115095;-75
2021/04/11 17:07:08;;;;;;;6.95;2.98;;;;;;;14.05;49.30;99066.42;258312;1118;114475;-77
2021/04/11 17:12:24;;;;;;;9.47;3.37;;;;;;;14.04;49.12;99072.75;255387;1119;114859;-76
2021/04/11 17:17:53;;;;;;;12.68;4.40;;;;;;;13.98;50.49;99075.89;258222;1119;114875;-74
2021/04/11 17:23:19;;;;;;;8.07;3.47;;;;;;;13.91;51.17;99067.47;255391;1119;116081;-77
2021/04/11 17:28:28;;;;;;;7.87;3.67;;;;;;;13.82;50.77;99069.98;257894;1119;115405;-75
2021/04/11 17:34:19;;;;;;;11.58;3.65;;;;;;;13.74;52.02;99062.53;258257;1119;114907;-76
2021/04/11 17:39:25;;;;;;;8.97;4.10;;;;;;;13.66;52.27;99073.81;257110;1119;115086;-76
2021/04/11 17:44:51;;;;;;;12.53;4.05;;;;;;;13.59;53.35;99087.76;257220;1119;114567;-75
2021/04/11 17:50:16;;;;;;;6.95;4.13;;;;;;;13.52;53.71;99083.80;258277;1118;114978;-77
2021/04/11 17:55:29;;;;;;;11.03;4.18;;;;;;;13.46;53.86;99091.32;256639;1119;115258;-77
2021/04/11 18:00:45;;;;;;;11.35;5.60;;;;;;;13.41;53.35;99100.63;257996;1119;115065;-77
2021/04/11 18:05:57;;;;;;;9.63;5.28;;;;;;;13.39;54.47;99114.12;258291;1118;114856;-75
2021/04/11 18:11:23;;;;;;;10.60;5.08;;;;;;;13.41;54.75;99120.19;257953;1117;114837;-76
2021/04/11 18:16:43;;;;;;;13.45;5.23;;;;;;;13.36;54.63;99103.64;258142;1119;116489;-75
2021/04/11 18:21:58;;;;;;;8.68;4.90;;;;;;;13.34;55.32;99108.23;258264;1118;115568;-76
2021/04/11 18:27:06;;;;;;;12.08;5.18;;;;;;;13.37;55.70;99107.17;258389;1118;114776;-75
2021/04/11 18:32:30;;;;;;;9.70;5.55;;;;;;;13.42;56.12;99097.02;258286;1118;114976;-74
2021/04/11 18:37:59;;;;;;;12.65;6.33;;;;;;;13.46;55.75;99103.84;258215;1119;114578;-75
2021/04/11 18:43:17;;;;;;;14.33;6.30;;;;;;;13.47;55.25;99101.03;258295;1118;114876;-75
2021/04/11 18:48:45;;;;;;;10.55;6.15;;;;;;;13.47;55.96;99102.86;258281;1119;115109;-76
2021/04/11 18:54:28;;;;;;;12.60;6.40;;;;;;;13.45;56.29;99105.66;257427;1119;114588;-80
2021/04/11 18:59:58;;;;;;;13.58;6.65;;;;;;;13.38;56.64;99099.06;256558;1120;114873;-78
2021/04/11 19:05:22;;;;;;;14.10;7.07;;;;;;;13.37;56.39;99088.45;254279;1118;114955;-76
2021/04/11 19:10:46;;;;;;;16.13;7.63;;;;;;;13.32;56.78;99087.95;256987;1119;115253;-74
2021/04/11 19:15:54;;;;;;;14.43;7.30;;;;;;;13.25;57.05;99091.06;258266;1118;114410;-73
2021/04/11 19:21:42;;;;;;;12.90;7.50;;;;;;;13.19;56.87;99088.80;258101;1119;114621;-70
2021/04/11 19:27:03;;;;;;;14.73;7.35;;;;;;;13.19;57.53;99095.96;258140;1119;114773;-71
2021/04/11 19:33:00;;;;;;;14.28;6.85;;;;;;;13.22;57.51;99091.25;258424;1119;115034;-71
2021/04/11 19:38:24;;;;;;;14.25;7.48;;;;;;;13.25;57.89;99091.06;257682;1121;116145;-72
2021/04/11 19:43:59;;;;;;;14.95;8.00;;;;;;;13.31;57.24;99100.44;258208;1118;114795;-71
2021/04/11 19:49:21;;;;;;;13.93;7.30;;;;;;;13.33;57.37;99101.20;255740;1120;114894;-74
2021/04/11 19:54:29;;;;;;;15.50;7.33;;;;;;;13.32;57.72;99099.49;258313;1119;114985;-74
2021/04/11 19:59:53;;;;;;;15.48;6.83;;;;;;;13.31;57.50;99096.91;258292;1119;114767;-74
2021/04/11 20:05:24;;;;;;;13.45;6.85;;;;;;;13.26;57.68;99099.93;258335;1118;115046;-74
2021/04/11 20:10:55;;;;;;;12.17;7.17;;;;;;;13.23;58.21;99100.12;258375;1119;114991;-75
2021/04/11 20:15:57;;;;;;;13.23;6.35;;;;;;;13.22;57.96;99101.94;258298;1119;115190;-72
2021/04/11 20:21:20;;;;;;;13.17;6.70;;;;;;;13.23;57.73;99098.29;254703;1119;115390;-73
2021/04/11 20:26:42;;;;;;;9.90;6.55;;;;;;;13.24;57.21;99094.68;258079;1118;114770;-74
2021/04/11 20:32:08;;;;;;;10.58;6.38;;;;;;;13.24;57.22;99091.16;258326;1118;114672;-74
2021/04/11 20:37:20;;;;;;;11.43;6.68;;;;;;;13.25;56.85;99095.56;257924;1119;115192;-74
2021/04/11 20:42:59;;;;;;;10.93;6.83;;;;;;;13.23;56.21;99087.60;258027;1119;114685;-73
2021/04/11 20:48:14;;;;;;;11.20;6.60;;;;;;;13.20;56.33;99086.97;257560;1119;115046;-74
2021/04/11 20:53:36;;;;;;;13.68;6.63;;;;;;;13.17;56.24;99076.50;258312;1119;115073;-73
2021/04/11 20:58:48;;;;;;;11.70;6.53;;;;;;;13.16;55.91;99072.98;258135;1118;117155;-73
2021/04/11 21:04:01;;;;;;;12.08;6.15;;;;;;;13.17;55.54;99065.81;258323;1118;114743;-72
2021/04/11 21:09:22;;;;;;;9.93;6.18;;;;;;;13.21;56.25;99065.50;257958;1119;114825;-73
2021/04/11 21:14:47;;;;;;;9.28;6.18;;;;;;;13.26;55.63;99057.17;257908;1118;114672;-72
2021/04/11 21:20:24;;;;;;;11.93;6.83;;;;;;;13.28;55.74;99055.25;258328;1119;114423;-72
2021/04/11 21:25:40;;;;;;;8.83;5.25;;;;;;;13.27;54.59;99060.69;258305;1118;114613;-72
2021/04/11 21:31:15;;;;;;;9.83;5.40;;;;;;;13.22;55.16;99064.53;257369;1120;114736;-73
2021/04/11 21:36:32;;;;;;;9.50;5.35;;;;;;;13.20;54.73;99058.42;256192;1118;114907;-72
2021/04/11 21:41:41;;;;;;;10.80;5.43;;;;;;;13.17;54.64;99055.97;258281;1119;114237;-73
2021/04/11 21:46:48;;;;;;;9.15;5.83;;;;;;;13.17;54.18;99057.80;258167;1119;114801;-74
2021/04/11 21:52:10;;;;;;;8.63;5.70;;;;;;;13.12;54.11;99051.95;258314;1118;114654;-74
2021/04/11 21:57:24;;;;;;;9.93;5.30;;;;;;;13.08;54.66;99053.98;257119;1118;114340;-72
2021/04/11 22:02:48;;;;;;;10.23;5.35;;;;;;;13.09;54.28;99049.49;257246;1119;114785;-73
2021/04/11 22:08:09;;;;;;;8.60;5.18;;;;;;;13.11;53.97;99055.56;258269;1119;115475;-73
2021/04/11 22:13:30;;;;;;;7.83;5.10;;;;;;;13.13;54.10;99048.30;257169;1118;114764;-78
2021/04/11 22:18:57;;;;;;;10.65;5.35;;;;;;;13.10;53.86;99048.52;258374;1119;116518;-71
2021/04/11 22:24:13;;;;;;;10.83;5.45;;;;;;;13.09;53.73;99055.69;258319;1118;115149;-71
2021/04/11 22:29:34;;;;;;;9.35;5.60;;;;;;;13.10;53.50;99049.37;254467;1120;114884;-76
2021/04/11 22:35:02;;;;;;;9.13;5.50;;;;;;;13.11;53.40;99050.22;257986;1119;114743;-72
2021/04/11 22:40:22;;;;;;;7.18;5.23;;;;;;;13.12;52.88;99055.47;258011;1119;114832;-75
2021/04/11 22:45:43;;;;;;;9.50;6.50;;;;;;;13.09;52.98;99057.51;258162;1119;115807;-74
2021/04/11 22:50:57;;;;;;;9.97;5.93;;;;;;;13.12;52.94;99062.63;257916;1119;114570;-74
2021/04/11 22:56:15;;;;;;;10.30;7.40;;;;;;;13.13;53.24;99046.48;257100;1119;114809;-75
2021/04/11 23:01:23;;;;;;;11.28;7.05;;;;;;;13.10;53.62;99053.86;258059;1119;115034;-73
2021/04/11 23:06:38;;;;;;;10.08;6.65;;;;;;;13.05;53.22;99038.17;257985;1119;115313;-73
2021/04/11 23:12:02;;;;;;;10.35;6.78;;;;;;;12.99;53.50;99039.45;257902;1119;114960;-75
2021/04/11 23:17:20;;;;;;;11.05;6.53;;;;;;;12.92;54.39;99037.34;257626;1119;115650;-75
2021/04/11 23:22:39;;;;;;;15.00;6.98;;;;;;;12.82;54.20;99034.48;256461;1118;115401;-75
2021/04/11 23:28:05;;;;;;;11.75;6.38;;;;;;;12.75;54.38;99038.55;256879;1119;115364;-73
2021/04/11 23:33:07;;;;;;;9.58;6.68;;;;;;;12.70;54.33;99029.99;258169;1118;115040;-73
2021/04/11 23:38:31;;;;;;;10.97;7.30;;;;;;;12.64;54.05;99022.45;257109;1119;114948;-72
2021/04/11 23:43:47;;;;;;;11.88;8.00;;;;;;;12.59;54.37;99022.75;258056;1119;115322;-72
2021/04/11 23:49:09;;;;;;;12.70;6.87;;;;;;;12.52;54.41;99016.14;258304;1119;114919;-74
2021/04/11 23:54:50;;;;;;;17.90;11.78;;;;;;;12.42;55.19;99015.08;258305;1118;115108;-74
